sensor_id;sensor_type;location;lat;lon;timestamp;pressure;altitude;pressure_sealevel;temperature;humidity
36932;BME280;22847;42.654;23.370;2023-08-17T00:00:44;94670.53;;;21.86;71.28
36932;BME280;22847;42.654;23.370;2023-08-17T00:03:12;94497.19;;;20.91;71.04
36932;BME280;22847;42.654;23.370;2023-08-17T00:05:40;94577.88;;;21.15;71.83
36932;BME280;22847;42.654;23.370;2023-08-17T00:08:06;94788.16;;;22.69;72.37
36932;BME280;22847;42.654;23.370;2023-08-17T00:10:31;94765.94;;;22.57;72.73
36932;BME280;22847;42.654;23.370;2023-08-17T00:12:57;94785.19;;;22.84;72.43
36932;BME280;22847;42.654;23.370;2023-08-17T00:15:22;94771.56;;;22.42;73.41
36932;BME280;22847;42.654;23.370;2023-08-17T00:17:48;94775.50;;;22.33;73.67
36932;BME280;22847;42.654;23.370;2023-08-17T00:20:13;94781.97;;;22.44;73.73
36932;BME280;22847;42.654;23.370;2023-08-17T00:22:39;94784.88;;;22.67;73.29
36932;BME280;22847;42.654;23.370;2023-08-17T00:25:04;94787.75;;;22.65;71.42
36932;BME280;22847;42.654;23.370;2023-08-17T00:27:33;94784.06;;;22.66;70.98
36932;BME280;22847;42.654;23.370;2023-08-17T00:29:58;94785.97;;;22.59;70.47
36932;BME280;22847;42.654;23.370;2023-08-17T00:32:24;94783.88;;;22.61;70.32
36932;BME280;22847;42.654;23.370;2023-08-17T00:34:49;94783.22;;;22.41;70.65
36932;BME280;22847;42.654;23.370;2023-08-17T00:37:14;94758.41;;;22.22;70.73
36932;BME280;22847;42.654;23.370;2023-08-17T00:39:40;94750.97;;;22.38;69.73
36932;BME280;22847;42.654;23.370;2023-08-17T00:42:05;94773.03;;;22.63;68.86
36932;BME280;22847;42.654;23.370;2023-08-17T00:44:33;94668.69;;;21.93;68.19
36932;BME280;22847;42.654;23.370;2023-08-17T00:46:58;94776.69;;;22.68;67.34
36932;BME280;22847;42.654;23.370;2023-08-17T00:49:24;94762.03;;;22.59;65.73
36932;BME280;22847;42.654;23.370;2023-08-17T00:51:49;94771.06;;;22.83;66.47
36932;BME280;22847;42.654;23.370;2023-08-17T00:54:19;94758.56;;;22.59;64.54
36932;BME280;22847;42.654;23.370;2023-08-17T00:56:48;94774.78;;;22.51;64.47
36932;BME280;22847;42.654;23.370;2023-08-17T00:59:13;94773.25;;;22.61;64.57
36932;BME280;22847;42.654;23.370;2023-08-17T01:01:39;94785.00;;;22.79;63.10
36932;BME280;22847;42.654;23.370;2023-08-17T01:04:04;94668.91;;;22.23;63.31
36932;BME280;22847;42.654;23.370;2023-08-17T01:06:30;94701.00;;;22.46;62.31
36932;BME280;22847;42.654;23.370;2023-08-17T01:08:55;94760.69;;;22.75;61.47
36932;BME280;22847;42.654;23.370;2023-08-17T01:13:56;94769.94;;;22.73;61.28
36932;BME280;22847;42.654;23.370;2023-08-17T01:16:28;94765.16;;;22.81;62.59
36932;BME280;22847;42.654;23.370;2023-08-17T01:18:55;94762.53;;;22.75;60.29
36932;BME280;22847;42.654;23.370;2023-08-17T01:21:24;94752.69;;;22.82;59.66
36932;BME280;22847;42.654;23.370;2023-08-17T01:23:49;94749.94;;;22.88;59.68
36932;BME280;22847;42.654;23.370;2023-08-17T01:26:15;94760.94;;;22.67;59.59
36932;BME280;22847;42.654;23.370;2023-08-17T01:28:45;94743.19;;;22.05;61.46
36932;BME280;22847;42.654;23.370;2023-08-17T01:31:16;94696.72;;;21.76;60.90
36932;BME280;22847;42.654;23.370;2023-08-17T01:33:48;94698.16;;;21.27;62.35
36932;BME280;22847;42.654;23.370;2023-08-17T01:36:36;94732.59;;;21.47;62.56
36932;BME280;22847;42.654;23.370;2023-08-17T01:39:03;94664.72;;;21.26;61.84
36932;BME280;22847;42.654;23.370;2023-08-17T01:41:30;94773.47;;;21.84;61.70
36932;BME280;22847;42.654;23.370;2023-08-17T01:43:57;94754.75;;;21.72;62.88
36932;BME280;22847;42.654;23.370;2023-08-17T01:46:27;94759.03;;;21.73;62.18
36932;BME280;22847;42.654;23.370;2023-08-17T01:48:53;94656.34;;;21.29;61.29
36932;BME280;22847;42.654;23.370;2023-08-17T01:51:20;94654.41;;;21.50;60.62
36932;BME280;22847;42.654;23.370;2023-08-17T01:53:46;94679.41;;;21.73;61.72
36932;BME280;22847;42.654;23.370;2023-08-17T01:56:11;94754.31;;;22.20;60.83
36932;BME280;22847;42.654;23.370;2023-08-17T01:58:36;94746.50;;;22.25;62.14
36932;BME280;22847;42.654;23.370;2023-08-17T02:01:02;94733.84;;;21.96;60.43
36932;BME280;22847;42.654;23.370;2023-08-17T02:03:27;94756.91;;;22.33;60.66
36932;BME280;22847;42.654;23.370;2023-08-17T02:05:56;94778.75;;;21.91;61.21
36932;BME280;22847;42.654;23.370;2023-08-17T02:08:22;94689.53;;;21.45;61.49
36932;BME280;22847;42.654;23.370;2023-08-17T02:10:47;94765.47;;;21.40;63.38
36932;BME280;22847;42.654;23.370;2023-08-17T02:13:13;94748.97;;;21.38;62.98
36932;BME280;22847;42.654;23.370;2023-08-17T02:15:39;94761.59;;;21.35;63.52
36932;BME280;22847;42.654;23.370;2023-08-17T02:18:05;94683.44;;;21.38;62.11
36932;BME280;22847;42.654;23.370;2023-08-17T02:20:30;94757.94;;;21.88;62.77
36932;BME280;22847;42.654;23.370;2023-08-17T02:22:56;94757.44;;;21.59;62.11
36932;BME280;22847;42.654;23.370;2023-08-17T02:25:21;94756.84;;;21.57;62.22
36932;BME280;22847;42.654;23.370;2023-08-17T02:27:46;94763.81;;;21.52;62.46
36932;BME280;22847;42.654;23.370;2023-08-17T02:30:12;94745.91;;;21.08;63.75
36932;BME280;22847;42.654;23.370;2023-08-17T02:32:39;94763.28;;;20.97;64.80
36932;BME280;22847;42.654;23.370;2023-08-17T02:35:06;94751.25;;;21.14;65.14
36932;BME280;22847;42.654;23.370;2023-08-17T02:37:31;94756.16;;;20.98;67.16
36932;BME280;22847;42.654;23.370;2023-08-17T02:39:57;94735.16;;;21.03;64.31
36932;BME280;22847;42.654;23.370;2023-08-17T02:42:22;94607.41;;;20.41;63.78
36932;BME280;22847;42.654;23.370;2023-08-17T02:44:48;94747.50;;;21.42;64.78
36932;BME280;22847;42.654;23.370;2023-08-17T02:47:13;94741.81;;;21.38;63.30
36932;BME280;22847;42.654;23.370;2023-08-17T02:49:39;94664.47;;;20.57;64.47
36932;BME280;22847;42.654;23.370;2023-08-17T02:52:04;94741.03;;;21.05;64.25
36932;BME280;22847;42.654;23.370;2023-08-17T02:54:30;94732.88;;;21.19;64.66
36932;BME280;22847;42.654;23.370;2023-08-17T02:56:56;94749.16;;;21.43;63.52
36932;BME280;22847;42.654;23.370;2023-08-17T02:59:22;94637.72;;;20.78;62.78
36932;BME280;22847;42.654;23.370;2023-08-17T03:01:47;94613.09;;;20.45;63.06
36932;BME280;22847;42.654;23.370;2023-08-17T03:04:13;94670.34;;;20.72;63.18
36932;BME280;22847;42.654;23.370;2023-08-17T03:06:38;94761.44;;;21.17;62.94
36932;BME280;22847;42.654;23.370;2023-08-17T03:09:04;94666.22;;;20.89;62.72
36932;BME280;22847;42.654;23.370;2023-08-17T03:11:29;94714.75;;;21.16;62.21
36932;BME280;22847;42.654;23.370;2023-08-17T03:13:55;94727.97;;;21.03;62.25
36932;BME280;22847;42.654;23.370;2023-08-17T03:16:26;94710.50;;;20.56;63.31
36932;BME280;22847;42.654;23.370;2023-08-17T03:18:53;94728.63;;;20.79;62.77
36932;BME280;22847;42.654;23.370;2023-08-17T03:21:18;94747.19;;;20.66;63.39
36932;BME280;22847;42.654;23.370;2023-08-17T03:23:45;94681.16;;;20.64;61.57
36932;BME280;22847;42.654;23.370;2023-08-17T03:26:10;94734.91;;;21.04;62.32
36932;BME280;22847;42.654;23.370;2023-08-17T03:28:35;94698.25;;;20.68;61.69
36932;BME280;22847;42.654;23.370;2023-08-17T03:31:02;94734.09;;;21.10;61.01
36932;BME280;22847;42.654;23.370;2023-08-17T03:33:28;94732.84;;;21.32;60.58
36932;BME280;22847;42.654;23.370;2023-08-17T03:35:53;94752.59;;;21.50;60.38
36932;BME280;22847;42.654;23.370;2023-08-17T03:38:18;94599.66;;;20.46;60.91
36932;BME280;22847;42.654;23.370;2023-08-17T03:40:44;94673.34;;;21.02;60.11
36932;BME280;22847;42.654;23.370;2023-08-17T03:43:09;94605.09;;;20.78;59.43
36932;BME280;22847;42.654;23.370;2023-08-17T03:45:35;94663.94;;;21.19;59.10
36932;BME280;22847;42.654;23.370;2023-08-17T03:48:00;94747.94;;;21.39;60.48
36932;BME280;22847;42.654;23.370;2023-08-17T03:50:27;94724.69;;;21.34;60.42
36932;BME280;22847;42.654;23.370;2023-08-17T03:52:53;94736.50;;;21.31;60.63
36932;BME280;22847;42.654;23.370;2023-08-17T03:55:18;94759.75;;;21.36;60.82
36932;BME280;22847;42.654;23.370;2023-08-17T03:57:43;94685.19;;;20.93;60.97
36932;BME280;22847;42.654;23.370;2023-08-17T04:00:09;94666.06;;;20.84;60.80
36932;BME280;22847;42.654;23.370;2023-08-17T04:02:35;94748.72;;;21.46;60.30
36932;BME280;22847;42.654;23.370;2023-08-17T04:05:01;94585.19;;;20.49;60.10
36932;BME280;22847;42.654;23.370;2023-08-17T04:07:26;94762.38;;;21.56;60.24
36932;BME280;22847;42.654;23.370;2023-08-17T04:09:52;94767.06;;;21.60;60.20
36932;BME280;22847;42.654;23.370;2023-08-17T04:12:17;94778.84;;;21.71;59.84
36932;BME280;22847;42.654;23.370;2023-08-17T04:14:44;94669.81;;;21.21;59.51
36932;BME280;22847;42.654;23.370;2023-08-17T04:17:09;94735.97;;;21.67;59.27
36932;BME280;22847;42.654;23.370;2023-08-17T04:19:34;94750.25;;;21.73;59.07
36932;BME280;22847;42.654;23.370;2023-08-17T04:22:00;94665.53;;;21.27;58.33
36932;BME280;22847;42.654;23.370;2023-08-17T04:24:25;94700.56;;;21.42;58.45
36932;BME280;22847;42.654;23.370;2023-08-17T04:26:51;94756.09;;;21.95;58.01
36932;BME280;22847;42.654;23.370;2023-08-17T04:29:16;94585.66;;;20.97;57.37
36932;BME280;22847;42.654;23.370;2023-08-17T04:31:41;94644.66;;;23.05;52.74
36932;BME280;22847;42.654;23.370;2023-08-17T04:34:07;94665.88;;;24.96;47.69
36932;BME280;22847;42.654;23.370;2023-08-17T04:36:32;94735.34;;;27.01;42.74
36932;BME280;22847;42.654;23.370;2023-08-17T04:38:58;94762.72;;;28.45;39.85
36932;BME280;22847;42.654;23.370;2023-08-17T04:41:23;94755.50;;;28.24;39.33
36932;BME280;22847;42.654;23.370;2023-08-17T04:43:48;94751.00;;;29.15;37.71
36932;BME280;22847;42.654;23.370;2023-08-17T04:46:14;94689.13;;;29.00;37.21
36932;BME280;22847;42.654;23.370;2023-08-17T04:48:40;94707.09;;;29.31;36.46
36932;BME280;22847;42.654;23.370;2023-08-17T04:51:05;94742.41;;;29.55;36.29
36932;BME280;22847;42.654;23.370;2023-08-17T04:53:31;94701.28;;;29.54;35.97
36932;BME280;22847;42.654;23.370;2023-08-17T04:55:56;94731.88;;;29.06;36.83
36932;BME280;22847;42.654;23.370;2023-08-17T04:58:21;94751.56;;;29.59;36.62
36932;BME280;22847;42.654;23.370;2023-08-17T05:00:50;94644.50;;;28.03;38.16
36932;BME280;22847;42.654;23.370;2023-08-17T05:03:16;94679.19;;;26.56;41.20
36932;BME280;22847;42.654;23.370;2023-08-17T05:05:41;94661.84;;;26.42;41.62
36932;BME280;22847;42.654;23.370;2023-08-17T05:08:07;94726.34;;;27.45;40.65
36932;BME280;22847;42.654;23.370;2023-08-17T05:10:35;94747.50;;;27.47;41.08
36932;BME280;22847;42.654;23.370;2023-08-17T05:13:01;94652.75;;;27.31;39.97
36932;BME280;22847;42.654;23.370;2023-08-17T05:15:26;94743.72;;;27.26;41.26
36932;BME280;22847;42.654;23.370;2023-08-17T05:17:52;94727.88;;;27.80;39.93
36932;BME280;22847;42.654;23.370;2023-08-17T05:20:17;94720.72;;;27.08;41.71
36932;BME280;22847;42.654;23.370;2023-08-17T05:22:42;94718.47;;;27.00;41.03
36932;BME280;22847;42.654;23.370;2023-08-17T05:25:11;94711.94;;;26.80;41.50
36932;BME280;22847;42.654;23.370;2023-08-17T05:27:36;94750.28;;;27.35;41.45
36932;BME280;22847;42.654;23.370;2023-08-17T05:30:02;94746.66;;;27.25;41.55
36932;BME280;22847;42.654;23.370;2023-08-17T05:32:27;94675.69;;;27.44;40.45
36932;BME280;22847;42.654;23.370;2023-08-17T05:34:53;94735.84;;;27.96;40.71
36932;BME280;22847;42.654;23.370;2023-08-17T05:37:20;94731.84;;;27.39;42.11
36932;BME280;22847;42.654;23.370;2023-08-17T05:39:46;94756.75;;;27.01;43.45
36932;BME280;22847;42.654;23.370;2023-08-17T05:42:11;94651.00;;;27.20;41.88
36932;BME280;22847;42.654;23.370;2023-08-17T05:44:40;94736.34;;;27.72;42.19
36932;BME280;22847;42.654;23.370;2023-08-17T05:47:05;94735.72;;;28.30;41.36
36932;BME280;22847;42.654;23.370;2023-08-17T05:49:30;94694.38;;;28.04;41.31
36932;BME280;22847;42.654;23.370;2023-08-17T05:51:56;94762.47;;;27.81;42.58
36932;BME280;22847;42.654;23.370;2023-08-17T05:54:21;94758.03;;;27.70;44.19
36932;BME280;22847;42.654;23.370;2023-08-17T05:56:47;94629.69;;;26.37;46.32
36932;BME280;22847;42.654;23.370;2023-08-17T05:59:13;94592.44;;;26.18;46.98
36932;BME280;22847;42.654;23.370;2023-08-17T06:01:38;94758.63;;;27.00;47.01
36932;BME280;22847;42.654;23.370;2023-08-17T06:04:05;94749.41;;;27.30;46.36
36932;BME280;22847;42.654;23.370;2023-08-17T06:06:30;94746.94;;;27.45;46.18
36932;BME280;22847;42.654;23.370;2023-08-17T06:08:56;94764.75;;;27.51;46.55
36932;BME280;22847;42.654;23.370;2023-08-17T06:11:21;94774.91;;;27.49;46.26
36932;BME280;22847;42.654;23.370;2023-08-17T06:13:46;94735.53;;;28.15;44.90
36932;BME280;22847;42.654;23.370;2023-08-17T06:16:12;94753.69;;;28.83;43.01
36932;BME280;22847;42.654;23.370;2023-08-17T06:18:38;94679.41;;;27.81;43.08
36932;BME280;22847;42.654;23.370;2023-08-17T06:21:04;94673.63;;;28.16;42.12
36932;BME280;22847;42.654;23.370;2023-08-17T06:23:29;94750.34;;;28.44;42.50
36932;BME280;22847;42.654;23.370;2023-08-17T06:25:58;94749.59;;;28.49;42.57
36932;BME280;22847;42.654;23.370;2023-08-17T06:28:26;94745.22;;;27.72;43.68
36932;BME280;22847;42.654;23.370;2023-08-17T06:30:53;94760.50;;;28.69;42.48
36932;BME280;22847;42.654;23.370;2023-08-17T06:33:19;94762.00;;;28.81;42.18
36932;BME280;22847;42.654;23.370;2023-08-17T06:35:44;94657.91;;;28.57;41.61
36932;BME280;22847;42.654;23.370;2023-08-17T06:38:10;94600.63;;;27.87;42.61
36932;BME280;22847;42.654;23.370;2023-08-17T06:40:35;94781.09;;;28.85;44.07
36932;BME280;22847;42.654;23.370;2023-08-17T06:43:00;94779.91;;;29.03;44.71
36932;BME280;22847;42.654;23.370;2023-08-17T06:45:26;94746.53;;;28.67;45.65
36932;BME280;22847;42.654;23.370;2023-08-17T06:47:51;94741.25;;;28.45;46.06
36932;BME280;22847;42.654;23.370;2023-08-17T06:50:17;94767.06;;;29.10;45.68
36932;BME280;22847;42.654;23.370;2023-08-17T06:52:42;94703.63;;;28.99;44.88
36932;BME280;22847;42.654;23.370;2023-08-17T06:55:08;94694.91;;;29.23;44.02
36932;BME280;22847;42.654;23.370;2023-08-17T06:57:34;94710.75;;;29.20;41.75
36932;BME280;22847;42.654;23.370;2023-08-17T07:00:00;94752.16;;;28.92;42.73
36932;BME280;22847;42.654;23.370;2023-08-17T07:02:25;94758.84;;;28.90;44.02
36932;BME280;22847;42.654;23.370;2023-08-17T07:04:51;94674.97;;;28.72;44.00
36932;BME280;22847;42.654;23.370;2023-08-17T07:07:16;94755.22;;;29.38;43.17
36932;BME280;22847;42.654;23.370;2023-08-17T07:09:42;94685.44;;;29.11;42.48
36932;BME280;22847;42.654;23.370;2023-08-17T07:12:07;94750.63;;;29.01;43.36
36932;BME280;22847;42.654;23.370;2023-08-17T07:14:32;94666.69;;;28.79;42.09
36932;BME280;22847;42.654;23.370;2023-08-17T07:16:59;94550.47;;;27.83;41.10
36932;BME280;22847;42.654;23.370;2023-08-17T07:19:27;94747.38;;;29.78;41.38
36932;BME280;22847;42.654;23.370;2023-08-17T07:21:52;94756.94;;;30.06;41.46
36932;BME280;22847;42.654;23.370;2023-08-17T07:24:19;94763.31;;;30.52;40.57
36932;BME280;22847;42.654;23.370;2023-08-17T07:26:45;94765.78;;;30.79;38.49
36932;BME280;22847;42.654;23.370;2023-08-17T07:29:10;94759.00;;;30.56;38.64
36932;BME280;22847;42.654;23.370;2023-08-17T07:31:37;94682.28;;;30.53;37.40
36932;BME280;22847;42.654;23.370;2023-08-17T07:34:06;94683.91;;;31.15;35.99
36932;BME280;22847;42.654;23.370;2023-08-17T07:36:33;94686.31;;;31.27;35.86
36932;BME280;22847;42.654;23.370;2023-08-17T07:38:58;94694.56;;;31.71;36.05
36932;BME280;22847;42.654;23.370;2023-08-17T07:41:24;94624.38;;;30.86;36.43
36932;BME280;22847;42.654;23.370;2023-08-17T07:43:59;94761.13;;;31.80;36.40
36932;BME280;22847;42.654;23.370;2023-08-17T07:46:24;94733.22;;;31.11;35.67
36932;BME280;22847;42.654;23.370;2023-08-17T07:48:49;94680.41;;;30.84;35.17
36932;BME280;22847;42.654;23.370;2023-08-17T07:51:15;94664.25;;;30.64;34.64
36932;BME280;22847;42.654;23.370;2023-08-17T07:53:40;94732.28;;;30.34;36.09
36932;BME280;22847;42.654;23.370;2023-08-17T07:56:06;94683.91;;;30.60;36.43
36932;BME280;22847;42.654;23.370;2023-08-17T07:58:31;94643.78;;;30.63;35.17
36932;BME280;22847;42.654;23.370;2023-08-17T08:00:57;94721.06;;;30.73;34.98
36932;BME280;22847;42.654;23.370;2023-08-17T08:03:22;94743.09;;;30.54;35.18
36932;BME280;22847;42.654;23.370;2023-08-17T08:05:48;94660.75;;;30.48;35.47
36932;BME280;22847;42.654;23.370;2023-08-17T08:08:13;94732.34;;;31.45;34.63
36932;BME280;22847;42.654;23.370;2023-08-17T08:10:40;94719.59;;;31.81;33.38
36932;BME280;22847;42.654;23.370;2023-08-17T08:13:05;94654.75;;;31.42;33.88
36932;BME280;22847;42.654;23.370;2023-08-17T08:15:33;94725.06;;;31.51;34.36
36932;BME280;22847;42.654;23.370;2023-08-17T08:17:58;94673.13;;;31.10;34.74
36932;BME280;22847;42.654;23.370;2023-08-17T08:20:23;94705.91;;;31.53;34.56
36932;BME280;22847;42.654;23.370;2023-08-17T08:22:49;94723.41;;;31.70;34.29
36932;BME280;22847;42.654;23.370;2023-08-17T08:25:14;94668.53;;;30.95;35.01
36932;BME280;22847;42.654;23.370;2023-08-17T08:27:39;94706.47;;;31.60;34.83
36932;BME280;22847;42.654;23.370;2023-08-17T08:30:06;94715.25;;;31.96;34.59
36932;BME280;22847;42.654;23.370;2023-08-17T08:32:32;94684.06;;;32.28;34.32
36932;BME280;22847;42.654;23.370;2023-08-17T08:34:57;94709.78;;;32.11;34.38
36932;BME280;22847;42.654;23.370;2023-08-17T08:37:23;94717.03;;;32.69;34.02
36932;BME280;22847;42.654;23.370;2023-08-17T08:39:50;94718.44;;;32.13;34.36
36932;BME280;22847;42.654;23.370;2023-08-17T08:42:17;94724.84;;;32.71;33.86
36932;BME280;22847;42.654;23.370;2023-08-17T08:44:42;94731.03;;;31.23;35.37
36932;BME280;22847;42.654;23.370;2023-08-17T08:47:08;94705.19;;;30.96;35.70
36932;BME280;22847;42.654;23.370;2023-08-17T08:49:38;94710.72;;;31.76;34.90
36932;BME280;22847;42.654;23.370;2023-08-17T08:52:07;94645.84;;;31.47;34.71
36932;BME280;22847;42.654;23.370;2023-08-17T08:54:35;94708.16;;;32.64;33.88
36932;BME280;22847;42.654;23.370;2023-08-17T08:57:04;94704.13;;;32.56;33.37
36932;BME280;22847;42.654;23.370;2023-08-17T08:59:34;94641.13;;;31.83;34.03
36932;BME280;22847;42.654;23.370;2023-08-17T09:01:59;94710.50;;;31.62;35.07
36932;BME280;22847;42.654;23.370;2023-08-17T09:04:25;94692.22;;;31.34;35.78
36932;BME280;22847;42.654;23.370;2023-08-17T09:06:51;94706.50;;;30.69;36.35
36932;BME280;22847;42.654;23.370;2023-08-17T09:09:18;94675.53;;;30.76;36.85
36932;BME280;22847;42.654;23.370;2023-08-17T09:11:43;94676.78;;;31.70;35.53
36932;BME280;22847;42.654;23.370;2023-08-17T09:14:12;94627.75;;;31.58;34.78
36932;BME280;22847;42.654;23.370;2023-08-17T09:16:38;94554.72;;;31.39;34.06
36932;BME280;22847;42.654;23.370;2023-08-17T09:19:04;94701.38;;;32.66;33.55
36932;BME280;22847;42.654;23.370;2023-08-17T09:21:32;94647.97;;;32.58;33.32
36932;BME280;22847;42.654;23.370;2023-08-17T09:23:58;94586.78;;;31.45;34.11
36932;BME280;22847;42.654;23.370;2023-08-17T09:26:23;94633.16;;;31.48;35.19
36932;BME280;22847;42.654;23.370;2023-08-17T09:28:52;94666.47;;;31.82;34.55
36932;BME280;22847;42.654;23.370;2023-08-17T09:31:23;94620.00;;;32.00;33.41
36932;BME280;22847;42.654;23.370;2023-08-17T09:33:50;94668.13;;;32.71;32.85
36932;BME280;22847;42.654;23.370;2023-08-17T09:36:20;94653.53;;;32.72;33.07
36932;BME280;22847;42.654;23.370;2023-08-17T09:38:48;94654.78;;;33.18;32.12
36932;BME280;22847;42.654;23.370;2023-08-17T09:41:13;94656.69;;;33.18;32.02
36932;BME280;22847;42.654;23.370;2023-08-17T09:43:39;94628.00;;;31.61;32.24
36932;BME280;22847;42.654;23.370;2023-08-17T09:46:04;94546.28;;;31.07;31.73
36932;BME280;22847;42.654;23.370;2023-08-17T09:48:32;94636.72;;;31.28;33.03
36932;BME280;22847;42.654;23.370;2023-08-17T09:50:58;94594.34;;;31.43;33.22
36932;BME280;22847;42.654;23.370;2023-08-17T09:53:24;94658.19;;;31.53;32.96
36932;BME280;22847;42.654;23.370;2023-08-17T09:55:50;94643.19;;;32.01;32.02
36932;BME280;22847;42.654;23.370;2023-08-17T09:58:16;94616.09;;;31.67;32.51
36932;BME280;22847;42.654;23.370;2023-08-17T10:00:46;94640.63;;;31.66;32.60
36932;BME280;22847;42.654;23.370;2023-08-17T10:03:17;94595.34;;;31.68;32.53
36932;BME280;22847;42.654;23.370;2023-08-17T10:05:45;94649.84;;;31.65;32.32
36932;BME280;22847;42.654;23.370;2023-08-17T10:08:11;94631.72;;;31.70;32.13
36932;BME280;22847;42.654;23.370;2023-08-17T10:10:43;94376.94;;;29.70;32.66
36932;BME280;22847;42.654;23.370;2023-08-17T10:16:03;94645.06;;;31.21;32.85
36932;BME280;22847;42.654;23.370;2023-08-17T10:18:38;94621.38;;;31.28;32.19
36932;BME280;22847;42.654;23.370;2023-08-17T10:21:13;94545.13;;;31.23;32.61
36932;BME280;22847;42.654;23.370;2023-08-17T10:23:44;94630.97;;;31.60;31.73
36932;BME280;22847;42.654;23.370;2023-08-17T10:26:11;94607.63;;;31.89;31.60
36932;BME280;22847;42.654;23.370;2023-08-17T10:28:38;94551.59;;;31.81;31.05
36932;BME280;22847;42.654;23.370;2023-08-17T10:31:04;94604.84;;;32.04;31.08
36932;BME280;22847;42.654;23.370;2023-08-17T10:33:33;94614.84;;;32.04;30.98
36932;BME280;22847;42.654;23.370;2023-08-17T10:36:00;94615.97;;;31.33;31.48
36932;BME280;22847;42.654;23.370;2023-08-17T10:38:26;94590.72;;;31.78;30.96
36932;BME280;22847;42.654;23.370;2023-08-17T10:43:34;94622.97;;;31.29;32.40
36932;BME280;22847;42.654;23.370;2023-08-17T10:46:19;94605.03;;;31.74;31.54
36932;BME280;22847;42.654;23.370;2023-08-17T10:48:45;94553.84;;;31.64;29.92
36932;BME280;22847;42.654;23.370;2023-08-17T10:51:11;94572.75;;;31.49;31.19
36932;BME280;22847;42.654;23.370;2023-08-17T10:53:43;94508.38;;;31.42;30.48
36932;BME280;22847;42.654;23.370;2023-08-17T10:56:13;94609.09;;;31.66;31.29
36932;BME280;22847;42.654;23.370;2023-08-17T10:58:39;94528.13;;;31.27;31.42
36932;BME280;22847;42.654;23.370;2023-08-17T11:01:08;94595.38;;;31.58;30.66
36932;BME280;22847;42.654;23.370;2023-08-17T11:03:34;94610.00;;;31.36;30.55
36932;BME280;22847;42.654;23.370;2023-08-17T11:06:14;94497.91;;;31.30;30.50
36932;BME280;22847;42.654;23.370;2023-08-17T11:08:52;94583.38;;;31.84;30.38
36932;BME280;22847;42.654;23.370;2023-08-17T11:11:22;94553.78;;;31.79;31.39
36932;BME280;22847;42.654;23.370;2023-08-17T11:13:52;94549.03;;;31.61;32.18
36932;BME280;22847;42.654;23.370;2023-08-17T11:16:18;94568.47;;;31.48;31.14
36932;BME280;22847;42.654;23.370;2023-08-17T11:18:47;94504.63;;;31.38;30.85
36932;BME280;22847;42.654;23.370;2023-08-17T11:21:17;94546.09;;;31.96;30.61
36932;BME280;22847;42.654;23.370;2023-08-17T11:23:42;94562.50;;;32.10;30.56
36932;BME280;22847;42.654;23.370;2023-08-17T11:26:08;94583.22;;;32.14;32.26
36932;BME280;22847;42.654;23.370;2023-08-17T11:28:34;94439.03;;;31.58;32.12
36932;BME280;22847;42.654;23.370;2023-08-17T11:31:04;94525.81;;;31.55;32.46
36932;BME280;22847;42.654;23.370;2023-08-17T11:33:31;94577.63;;;31.47;32.56
36932;BME280;22847;42.654;23.370;2023-08-17T11:35:58;94570.31;;;31.57;32.94
36932;BME280;22847;42.654;23.370;2023-08-17T11:38:38;94481.00;;;31.20;33.33
36932;BME280;22847;42.654;23.370;2023-08-17T11:41:07;94556.59;;;31.43;34.03
36932;BME280;22847;42.654;23.370;2023-08-17T11:43:35;94556.31;;;31.55;34.25
36932;BME280;22847;42.654;23.370;2023-08-17T11:46:01;94550.91;;;31.50;34.23
36932;BME280;22847;42.654;23.370;2023-08-17T11:48:27;94506.31;;;31.29;34.92
36932;BME280;22847;42.654;23.370;2023-08-17T11:50:53;94551.94;;;31.69;34.88
36932;BME280;22847;42.654;23.370;2023-08-17T11:53:20;94568.22;;;31.93;34.18
36932;BME280;22847;42.654;23.370;2023-08-17T11:55:48;94424.91;;;30.68;34.55
36932;BME280;22847;42.654;23.370;2023-08-17T11:58:14;94493.03;;;30.63;35.76
36932;BME280;22847;42.654;23.370;2023-08-17T12:00:41;94498.47;;;30.53;35.88
36932;BME280;22847;42.654;23.370;2023-08-17T12:03:07;94566.41;;;31.19;36.12
36932;BME280;22847;42.654;23.370;2023-08-17T12:05:33;94540.69;;;31.52;35.14
36932;BME280;22847;42.654;23.370;2023-08-17T12:07:59;94530.69;;;31.53;34.77
36932;BME280;22847;42.654;23.370;2023-08-17T12:10:29;94510.47;;;31.01;34.51
36932;BME280;22847;42.654;23.370;2023-08-17T12:13:00;94548.97;;;31.66;34.47
36932;BME280;22847;42.654;23.370;2023-08-17T12:15:35;94482.84;;;30.50;35.09
36932;BME280;22847;42.654;23.370;2023-08-17T12:18:04;94514.59;;;30.53;35.64
36932;BME280;22847;42.654;23.370;2023-08-17T12:20:32;94534.41;;;30.97;36.10
36932;BME280;22847;42.654;23.370;2023-08-17T12:22:58;94546.59;;;30.75;35.54
36932;BME280;22847;42.654;23.370;2023-08-17T12:25:26;94541.72;;;30.77;35.84
36932;BME280;22847;42.654;23.370;2023-08-17T12:27:52;94411.31;;;30.08;36.22
36932;BME280;22847;42.654;23.370;2023-08-17T12:30:26;94482.03;;;30.39;36.77
36932;BME280;22847;42.654;23.370;2023-08-17T12:32:51;94551.66;;;30.86;36.28
36932;BME280;22847;42.654;23.370;2023-08-17T12:35:17;94463.44;;;30.58;36.59
36932;BME280;22847;42.654;23.370;2023-08-17T12:37:42;94542.69;;;31.21;37.10
36932;BME280;22847;42.654;23.370;2023-08-17T12:40:08;94544.88;;;31.14;36.54
36932;BME280;22847;42.654;23.370;2023-08-17T12:42:35;94448.06;;;30.74;36.32
36932;BME280;22847;42.654;23.370;2023-08-17T12:45:00;94544.16;;;31.53;35.81
36932;BME280;22847;42.654;23.370;2023-08-17T12:47:26;94551.09;;;30.94;37.05
36932;BME280;22847;42.654;23.370;2023-08-17T12:49:51;94560.88;;;30.65;37.71
36932;BME280;22847;42.654;23.370;2023-08-17T12:52:17;94533.69;;;30.62;37.17
36932;BME280;22847;42.654;23.370;2023-08-17T12:54:42;94555.50;;;30.65;37.77